sensor_id;sensor_type;location;lat;lon;timestamp;temperature;humidity
36442;DHT22;22470;50.824;16.284;2022-07-29T00:01:07;15.20;99.90
36442;DHT22;22470;50.824;16.284;2022-07-29T00:03:46;15.20;99.90
36442;DHT22;22470;50.824;16.284;2022-07-29T00:06:14;15.20;99.90
36442;DHT22;22470;50.824;16.284;2022-07-29T00:08:41;15.20;99.90
36442;DHT22;22470;50.824;16.284;2022-07-29T00:11:09;15.20;99.90
36442;DHT22;22470;50.824;16.284;2022-07-29T00:13:36;15.10;99.90
36442;DHT22;22470;50.824;16.284;2022-07-29T00:16:03;15.00;99.90
36442;DHT22;22470;50.824;16.284;2022-07-29T00:18:31;15.00;99.90
36442;DHT22;22470;50.824;16.284;2022-07-29T00:20:59;15.00;99.90
36442;DHT22;22470;50.824;16.284;2022-07-29T00:23:26;14.90;99.90
36442;DHT22;22470;50.824;16.284;2022-07-29T00:25:54;14.90;99.90
36442;DHT22;22470;50.824;16.284;2022-07-29T00:28:21;14.80;99.90
36442;DHT22;22470;50.824;16.284;2022-07-29T00:30:48;14.80;99.90
36442;DHT22;22470;50.824;16.284;2022-07-29T00:33:15;14.80;99.90
36442;DHT22;22470;50.824;16.284;2022-07-29T00:35:42;14.80;99.90
36442;DHT22;22470;50.824;16.284;2022-07-29T00:38:11;14.80;99.90
36442;DHT22;22470;50.824;16.284;2022-07-29T00:40:39;14.80;99.90
36442;DHT22;22470;50.824;16.284;2022-07-29T00:43:11;14.80;99.90
36442;DHT22;22470;50.824;16.284;2022-07-29T00:45:38;14.80;99.90
36442;DHT22;22470;50.824;16.284;2022-07-29T00:48:06;14.80;99.90
36442;DHT22;22470;50.824;16.284;2022-07-29T00:50:33;14.80;99.90
36442;DHT22;22470;50.824;16.284;2022-07-29T00:53:01;14.70;99.90
36442;DHT22;22470;50.824;16.284;2022-07-29T00:55:29;14.70;99.90
36442;DHT22;22470;50.824;16.284;2022-07-29T00:57:58;14.60;99.90
36442;DHT22;22470;50.824;16.284;2022-07-29T01:00:27;14.60;99.90
36442;DHT22;22470;50.824;16.284;2022-07-29T01:02:55;14.60;99.90
36442;DHT22;22470;50.824;16.284;2022-07-29T01:05:24;14.50;99.90
36442;DHT22;22470;50.824;16.284;2022-07-29T01:08:14;14.50;99.90
36442;DHT22;22470;50.824;16.284;2022-07-29T01:10:43;14.50;99.90
36442;DHT22;22470;50.824;16.284;2022-07-29T01:13:11;14.40;99.90
36442;DHT22;22470;50.824;16.284;2022-07-29T01:15:44;14.40;99.90
36442;DHT22;22470;50.824;16.284;2022-07-29T01:18:31;14.40;99.90
36442;DHT22;22470;50.824;16.284;2022-07-29T01:34:45;14.30;99.90
36442;DHT22;22470;50.824;16.284;2022-07-29T01:37:28;14.30;99.90
36442;DHT22;22470;50.824;16.284;2022-07-29T01:39:57;14.30;99.90
36442;DHT22;22470;50.824;16.284;2022-07-29T01:42:44;14.20;99.90
36442;DHT22;22470;50.824;16.284;2022-07-29T01:45:39;14.20;99.90
36442;DHT22;22470;50.824;16.284;2022-07-29T01:51:25;14.10;99.90
36442;DHT22;22470;50.824;16.284;2022-07-29T01:54:10;14.10;99.90
36442;DHT22;22470;50.824;16.284;2022-07-29T01:56:39;14.00;99.90
36442;DHT22;22470;50.824;16.284;2022-07-29T01:59:10;14.00;99.90
36442;DHT22;22470;50.824;16.284;2022-07-29T02:01:39;14.00;99.90
36442;DHT22;22470;50.824;16.284;2022-07-29T02:04:09;13.90;99.90
36442;DHT22;22470;50.824;16.284;2022-07-29T02:07:00;13.90;99.90
36442;DHT22;22470;50.824;16.284;2022-07-29T02:09:29;13.90;99.90
36442;DHT22;22470;50.824;16.284;2022-07-29T02:11:59;13.90;99.90
36442;DHT22;22470;50.824;16.284;2022-07-29T02:14:31;13.90;99.90
36442;DHT22;22470;50.824;16.284;2022-07-29T02:17:00;13.80;99.90
36442;DHT22;22470;50.824;16.284;2022-07-29T02:19:29;13.80;99.90
36442;DHT22;22470;50.824;16.284;2022-07-29T02:21:59;13.80;99.90
36442;DHT22;22470;50.824;16.284;2022-07-29T02:24:28;13.80;99.90
36442;DHT22;22470;50.824;16.284;2022-07-29T02:26:58;13.80;99.90
36442;DHT22;22470;50.824;16.284;2022-07-29T02:29:27;13.70;99.90
36442;DHT22;22470;50.824;16.284;2022-07-29T02:31:57;13.70;99.90
36442;DHT22;22470;50.824;16.284;2022-07-29T02:34:25;13.70;99.90
36442;DHT22;22470;50.824;16.284;2022-07-29T02:36:54;13.70;99.90
36442;DHT22;22470;50.824;16.284;2022-07-29T02:39:24;13.70;99.90
36442;DHT22;22470;50.824;16.284;2022-07-29T02:42:07;13.70;99.90
36442;DHT22;22470;50.824;16.284;2022-07-29T02:44:35;13.70;99.90
36442;DHT22;22470;50.824;16.284;2022-07-29T02:49:47;13.70;99.90
36442;DHT22;22470;50.824;16.284;2022-07-29T02:54:56;13.60;99.90
36442;DHT22;22470;50.824;16.284;2022-07-29T02:57:35;13.60;99.90
36442;DHT22;22470;50.824;16.284;2022-07-29T03:00:23;13.50;99.90
36442;DHT22;22470;50.824;16.284;2022-07-29T03:02:56;13.50;99.90
36442;DHT22;22470;50.824;16.284;2022-07-29T03:05:26;13.50;99.90
36442;DHT22;22470;50.824;16.284;2022-07-29T03:07:58;13.50;99.90
36442;DHT22;22470;50.824;16.284;2022-07-29T03:10:28;13.60;99.90
36442;DHT22;22470;50.824;16.284;2022-07-29T03:12:55;13.60;99.90
36442;DHT22;22470;50.824;16.284;2022-07-29T03:15:25;13.60;99.90
36442;DHT22;22470;50.824;16.284;2022-07-29T03:17:53;13.70;99.90
36442;DHT22;22470;50.824;16.284;2022-07-29T03:20:20;13.60;99.90
36442;DHT22;22470;50.824;16.284;2022-07-29T03:22:48;13.70;99.90
36442;DHT22;22470;50.824;16.284;2022-07-29T03:25:17;13.70;99.90
36442;DHT22;22470;50.824;16.284;2022-07-29T03:27:47;13.70;99.90
36442;DHT22;22470;50.824;16.284;2022-07-29T03:30:15;13.70;99.90
36442;DHT22;22470;50.824;16.284;2022-07-29T03:32:49;13.70;99.90
36442;DHT22;22470;50.824;16.284;2022-07-29T03:35:19;13.60;99.90
36442;DHT22;22470;50.824;16.284;2022-07-29T03:37:46;13.70;99.90
36442;DHT22;22470;50.824;16.284;2022-07-29T03:40:20;13.70;99.90
36442;DHT22;22470;50.824;16.284;2022-07-29T03:42:49;13.90;99.90
36442;DHT22;22470;50.824;16.284;2022-07-29T03:45:19;14.00;99.90
36442;DHT22;22470;50.824;16.284;2022-07-29T03:47:50;14.20;99.90
36442;DHT22;22470;50.824;16.284;2022-07-29T03:50:26;14.40;99.90
36442;DHT22;22470;50.824;16.284;2022-07-29T03:52:54;14.60;99.90
36442;DHT22;22470;50.824;16.284;2022-07-29T03:55:21;14.80;99.90
36442;DHT22;22470;50.824;16.284;2022-07-29T03:57:49;15.00;99.90
36442;DHT22;22470;50.824;16.284;2022-07-29T04:00:17;15.20;99.90
36442;DHT22;22470;50.824;16.284;2022-07-29T04:02:45;15.50;99.90
36442;DHT22;22470;50.824;16.284;2022-07-29T04:05:13;15.80;99.90
36442;DHT22;22470;50.824;16.284;2022-07-29T04:07:46;16.00;99.90
36442;DHT22;22470;50.824;16.284;2022-07-29T04:10:15;16.30;99.90
36442;DHT22;22470;50.824;16.284;2022-07-29T04:12:42;16.50;99.90
36442;DHT22;22470;50.824;16.284;2022-07-29T04:15:10;16.60;99.90
36442;DHT22;22470;50.824;16.284;2022-07-29T04:17:38;16.80;99.90
36442;DHT22;22470;50.824;16.284;2022-07-29T04:20:05;17.00;99.90
36442;DHT22;22470;50.824;16.284;2022-07-29T04:22:33;17.20;99.90
36442;DHT22;22470;50.824;16.284;2022-07-29T04:25:00;17.30;99.90
36442;DHT22;22470;50.824;16.284;2022-07-29T04:27:30;17.60;99.90
36442;DHT22;22470;50.824;16.284;2022-07-29T04:29:57;17.80;99.90
36442;DHT22;22470;50.824;16.284;2022-07-29T04:32:25;17.70;99.90
36442;DHT22;22470;50.824;16.284;2022-07-29T04:34:52;17.50;99.90
36442;DHT22;22470;50.824;16.284;2022-07-29T04:37:19;17.30;99.90
36442;DHT22;22470;50.824;16.284;2022-07-29T04:39:47;17.10;99.90
36442;DHT22;22470;50.824;16.284;2022-07-29T04:42:14;17.00;99.90
36442;DHT22;22470;50.824;16.284;2022-07-29T04:44:43;16.80;99.90
36442;DHT22;22470;50.824;16.284;2022-07-29T04:47:11;16.70;99.90
36442;DHT22;22470;50.824;16.284;2022-07-29T04:49:38;16.70;99.90
36442;DHT22;22470;50.824;16.284;2022-07-29T04:52:06;16.70;99.90
36442;DHT22;22470;50.824;16.284;2022-07-29T04:54:33;16.90;99.90
36442;DHT22;22470;50.824;16.284;2022-07-29T04:57:00;17.40;99.90
36442;DHT22;22470;50.824;16.284;2022-07-29T04:59:27;17.80;99.90
36442;DHT22;22470;50.824;16.284;2022-07-29T05:01:55;18.10;99.90
36442;DHT22;22470;50.824;16.284;2022-07-29T05:04:22;18.20;99.90
36442;DHT22;22470;50.824;16.284;2022-07-29T05:06:49;18.20;99.90
36442;DHT22;22470;50.824;16.284;2022-07-29T05:09:17;18.00;99.90
36442;DHT22;22470;50.824;16.284;2022-07-29T05:11:44;18.00;99.90
36442;DHT22;22470;50.824;16.284;2022-07-29T05:14:11;18.00;99.90
36442;DHT22;22470;50.824;16.284;2022-07-29T05:16:39;18.00;99.90
36442;DHT22;22470;50.824;16.284;2022-07-29T05:19:06;17.90;99.90
36442;DHT22;22470;50.824;16.284;2022-07-29T05:21:40;17.90;99.90
36442;DHT22;22470;50.824;16.284;2022-07-29T05:24:07;17.90;99.90
36442;DHT22;22470;50.824;16.284;2022-07-29T05:26:34;18.00;99.90
36442;DHT22;22470;50.824;16.284;2022-07-29T05:29:02;18.40;99.90
36442;DHT22;22470;50.824;16.284;2022-07-29T05:31:29;19.00;99.90
36442;DHT22;22470;50.824;16.284;2022-07-29T05:33:56;19.70;99.90
36442;DHT22;22470;50.824;16.284;2022-07-29T05:36:23;20.40;99.90
36442;DHT22;22470;50.824;16.284;2022-07-29T05:38:50;20.90;99.90
36442;DHT22;22470;50.824;16.284;2022-07-29T05:41:18;21.20;99.90
36442;DHT22;22470;50.824;16.284;2022-07-29T05:43:46;21.30;99.90
36442;DHT22;22470;50.824;16.284;2022-07-29T05:46:13;21.20;99.90
36442;DHT22;22470;50.824;16.284;2022-07-29T05:48:40;21.10;99.90
36442;DHT22;22470;50.824;16.284;2022-07-29T05:51:08;21.00;99.90
36442;DHT22;22470;50.824;16.284;2022-07-29T05:53:35;21.00;99.90
36442;DHT22;22470;50.824;16.284;2022-07-29T05:56:05;21.20;99.90
36442;DHT22;22470;50.824;16.284;2022-07-29T05:58:33;21.30;99.90
36442;DHT22;22470;50.824;16.284;2022-07-29T06:01:00;21.40;99.90
36442;DHT22;22470;50.824;16.284;2022-07-29T06:03:27;21.50;99.90
36442;DHT22;22470;50.824;16.284;2022-07-29T06:05:55;21.40;99.90
36442;DHT22;22470;50.824;16.284;2022-07-29T06:08:22;21.30;99.90
36442;DHT22;22470;50.824;16.284;2022-07-29T06:10:49;21.10;99.90
36442;DHT22;22470;50.824;16.284;2022-07-29T06:13:16;20.90;99.90
36442;DHT22;22470;50.824;16.284;2022-07-29T06:15:44;20.70;99.90
36442;DHT22;22470;50.824;16.284;2022-07-29T06:18:12;20.60;99.90
36442;DHT22;22470;50.824;16.284;2022-07-29T06:20:40;20.60;99.90
36442;DHT22;22470;50.824;16.284;2022-07-29T06:23:07;20.60;99.90
36442;DHT22;22470;50.824;16.284;2022-07-29T06:25:34;20.70;99.90
36442;DHT22;22470;50.824;16.284;2022-07-29T06:28:02;21.00;99.90
36442;DHT22;22470;50.824;16.284;2022-07-29T06:30:29;21.30;99.90
36442;DHT22;22470;50.824;16.284;2022-07-29T06:32:56;21.50;99.90
36442;DHT22;22470;50.824;16.284;2022-07-29T06:35:24;21.50;99.90
36442;DHT22;22470;50.824;16.284;2022-07-29T06:38:08;21.60;99.90
36442;DHT22;22470;50.824;16.284;2022-07-29T06:40:55;21.60;99.90
36442;DHT22;22470;50.824;16.284;2022-07-29T06:43:23;21.50;99.90
36442;DHT22;22470;50.824;16.284;2022-07-29T06:45:52;21.30;99.90
36442;DHT22;22470;50.824;16.284;2022-07-29T06:48:20;21.10;99.90
36442;DHT22;22470;50.824;16.284;2022-07-29T06:50:47;21.00;99.90
36442;DHT22;22470;50.824;16.284;2022-07-29T06:53:14;20.90;99.90
36442;DHT22;22470;50.824;16.284;2022-07-29T06:55:41;20.80;99.90
36442;DHT22;22470;50.824;16.284;2022-07-29T06:58:08;20.70;99.90
36442;DHT22;22470;50.824;16.284;2022-07-29T07:00:35;20.70;99.90
36442;DHT22;22470;50.824;16.284;2022-07-29T07:03:03;20.70;99.90
36442;DHT22;22470;50.824;16.284;2022-07-29T07:05:30;20.70;99.90
36442;DHT22;22470;50.824;16.284;2022-07-29T07:07:57;20.80;99.90
36442;DHT22;22470;50.824;16.284;2022-07-29T07:10:25;20.80;99.90
36442;DHT22;22470;50.824;16.284;2022-07-29T07:12:52;20.80;99.90
36442;DHT22;22470;50.824;16.284;2022-07-29T07:15:19;20.90;99.90
36442;DHT22;22470;50.824;16.284;2022-07-29T07:17:47;21.10;99.90
36442;DHT22;22470;50.824;16.284;2022-07-29T07:20:15;21.30;99.90
36442;DHT22;22470;50.824;16.284;2022-07-29T07:22:43;21.80;99.90
36442;DHT22;22470;50.824;16.284;2022-07-29T07:25:11;22.50;99.90
36442;DHT22;22470;50.824;16.284;2022-07-29T07:27:38;22.90;99.90
36442;DHT22;22470;50.824;16.284;2022-07-29T07:30:06;23.30;99.90
36442;DHT22;22470;50.824;16.284;2022-07-29T07:32:34;23.60;99.90
36442;DHT22;22470;50.824;16.284;2022-07-29T07:35:03;23.90;99.90
36442;DHT22;22470;50.824;16.284;2022-07-29T07:37:31;24.10;99.70
36442;DHT22;22470;50.824;16.284;2022-07-29T07:39:59;24.60;98.90
36442;DHT22;22470;50.824;16.284;2022-07-29T07:42:27;25.20;97.90
36442;DHT22;22470;50.824;16.284;2022-07-29T07:44:54;24.90;97.80
36442;DHT22;22470;50.824;16.284;2022-07-29T07:47:39;24.40;97.70
36442;DHT22;22470;50.824;16.284;2022-07-29T07:50:09;24.20;98.10
36442;DHT22;22470;50.824;16.284;2022-07-29T07:52:48;24.60;97.80
36442;DHT22;22470;50.824;16.284;2022-07-29T07:55:16;25.00;96.80
36442;DHT22;22470;50.824;16.284;2022-07-29T07:57:44;25.40;96.00
36442;DHT22;22470;50.824;16.284;2022-07-29T08:00:16;25.80;95.20
36442;DHT22;22470;50.824;16.284;2022-07-29T08:02:43;26.60;94.10
36442;DHT22;22470;50.824;16.284;2022-07-29T08:05:11;27.40;93.10
36442;DHT22;22470;50.824;16.284;2022-07-29T08:07:39;27.90;91.30
36442;DHT22;22470;50.824;16.284;2022-07-29T08:10:06;27.90;90.60
36442;DHT22;22470;50.824;16.284;2022-07-29T08:12:34;28.20;89.40
36442;DHT22;22470;50.824;16.284;2022-07-29T08:15:01;28.40;88.70
36442;DHT22;22470;50.824;16.284;2022-07-29T08:17:28;27.90;90.00
36442;DHT22;22470;50.824;16.284;2022-07-29T08:20:01;27.80;90.10
36442;DHT22;22470;50.824;16.284;2022-07-29T08:22:29;26.90;90.20
36442;DHT22;22470;50.824;16.284;2022-07-29T08:24:56;26.60;90.80
36442;DHT22;22470;50.824;16.284;2022-07-29T08:27:23;26.20;91.20
36442;DHT22;22470;50.824;16.284;2022-07-29T08:30:11;25.70;91.50
36442;DHT22;22470;50.824;16.284;2022-07-29T08:32:38;25.30;92.20
36442;DHT22;22470;50.824;16.284;2022-07-29T08:35:23;25.50;92.40
36442;DHT22;22470;50.824;16.284;2022-07-29T08:37:51;25.30;91.80
36442;DHT22;22470;50.824;16.284;2022-07-29T08:40:21;25.20;92.00
36442;DHT22;22470;50.824;16.284;2022-07-29T08:43:04;25.00;92.00
36442;DHT22;22470;50.824;16.284;2022-07-29T08:45:50;24.50;92.60
36442;DHT22;22470;50.824;16.284;2022-07-29T08:48:20;24.40;93.20
36442;DHT22;22470;50.824;16.284;2022-07-29T08:50:51;24.20;93.10
36442;DHT22;22470;50.824;16.284;2022-07-29T08:53:20;24.30;93.20
36442;DHT22;22470;50.824;16.284;2022-07-29T08:55:49;24.70;93.00
36442;DHT22;22470;50.824;16.284;2022-07-29T08:58:17;25.10;92.40
36442;DHT22;22470;50.824;16.284;2022-07-29T09:00:50;25.30;92.50
36442;DHT22;22470;50.824;16.284;2022-07-29T09:03:19;25.40;92.10
36442;DHT22;22470;50.824;16.284;2022-07-29T09:05:47;25.70;92.00
36442;DHT22;22470;50.824;16.284;2022-07-29T09:08:15;26.00;91.30
36442;DHT22;22470;50.824;16.284;2022-07-29T09:10:43;25.90;91.20
36442;DHT22;22470;50.824;16.284;2022-07-29T09:13:11;25.90;91.40
36442;DHT22;22470;50.824;16.284;2022-07-29T09:15:39;26.20;91.10
36442;DHT22;22470;50.824;16.284;2022-07-29T09:18:06;26.40;90.60
36442;DHT22;22470;50.824;16.284;2022-07-29T09:20:33;26.30;90.00
36442;DHT22;22470;50.824;16.284;2022-07-29T09:23:07;26.40;90.00
36442;DHT22;22470;50.824;16.284;2022-07-29T09:25:39;26.40;90.10
36442;DHT22;22470;50.824;16.284;2022-07-29T09:30:51;25.60;90.50
36442;DHT22;22470;50.824;16.284;2022-07-29T09:33:20;25.80;91.00
36442;DHT22;22470;50.824;16.284;2022-07-29T09:36:00;25.60;90.60
36442;DHT22;22470;50.824;16.284;2022-07-29T09:38:30;25.40;90.80
36442;DHT22;22470;50.824;16.284;2022-07-29T09:40:59;25.70;91.00
36442;DHT22;22470;50.824;16.284;2022-07-29T09:43:33;25.80;90.60
36442;DHT22;22470;50.824;16.284;2022-07-29T09:46:10;25.70;90.30
36442;DHT22;22470;50.824;16.284;2022-07-29T09:48:38;25.50;90.50
36442;DHT22;22470;50.824;16.284;2022-07-29T09:51:19;25.60;90.90
36442;DHT22;22470;50.824;16.284;2022-07-29T09:53:55;25.50;90.70
36442;DHT22;22470;50.824;16.284;2022-07-29T09:56:38;25.50;90.20
36442;DHT22;22470;50.824;16.284;2022-07-29T09:59:08;25.30;90.50
36442;DHT22;22470;50.824;16.284;2022-07-29T10:01:35;25.20;91.10
36442;DHT22;22470;50.824;16.284;2022-07-29T10:04:03;25.00;91.00
36442;DHT22;22470;50.824;16.284;2022-07-29T10:06:31;25.10;91.80
36442;DHT22;22470;50.824;16.284;2022-07-29T10:09:09;25.20;91.20
36442;DHT22;22470;50.824;16.284;2022-07-29T10:11:36;25.20;90.90
36442;DHT22;22470;50.824;16.284;2022-07-29T10:14:16;25.20;90.90
36442;DHT22;22470;50.824;16.284;2022-07-29T10:16:43;25.40;91.20
36442;DHT22;22470;50.824;16.284;2022-07-29T10:19:12;25.40;90.90
36442;DHT22;22470;50.824;16.284;2022-07-29T10:21:40;25.40;90.80
36442;DHT22;22470;50.824;16.284;2022-07-29T10:24:09;25.60;90.60
36442;DHT22;22470;50.824;16.284;2022-07-29T10:26:41;25.40;90.60
36442;DHT22;22470;50.824;16.284;2022-07-29T10:29:09;25.10;90.70
36442;DHT22;22470;50.824;16.284;2022-07-29T10:32:08;25.10;90.70
36442;DHT22;22470;50.824;16.284;2022-07-29T10:43:27;25.20;90.50
36442;DHT22;22470;50.824;16.284;2022-07-29T10:45:57;25.00;90.50
36442;DHT22;22470;50.824;16.284;2022-07-29T10:48:25;25.00;91.00
36442;DHT22;22470;50.824;16.284;2022-07-29T10:51:03;25.00;90.70
36442;DHT22;22470;50.824;16.284;2022-07-29T10:53:50;24.90;90.60
36442;DHT22;22470;50.824;16.284;2022-07-29T10:56:27;24.80;90.80
36442;DHT22;22470;50.824;16.284;2022-07-29T11:01:49;24.70;90.60
36442;DHT22;22470;50.824;16.284;2022-07-29T11:07:11;24.70;90.80
36442;DHT22;22470;50.824;16.284;2022-07-29T11:09:38;24.60;90.70
36442;DHT22;22470;50.824;16.284;2022-07-29T11:15:09;24.70;90.60
36442;DHT22;22470;50.824;16.284;2022-07-29T11:22:59;24.70;90.70
36442;DHT22;22470;50.824;16.284;2022-07-29T11:25:28;24.60;90.90
36442;DHT22;22470;50.824;16.284;2022-07-29T11:28:18;24.60;91.20
36442;DHT22;22470;50.824;16.284;2022-07-29T11:30:53;24.90;91.30
36442;DHT22;22470;50.824;16.284;2022-07-29T11:33:33;24.80;90.70
36442;DHT22;22470;50.824;16.284;2022-07-29T11:36:20;24.80;91.00
36442;DHT22;22470;50.824;16.284;2022-07-29T11:39:28;24.90;90.90
36442;DHT22;22470;50.824;16.284;2022-07-29T11:42:36;25.10;90.60
36442;DHT22;22470;50.824;16.284;2022-07-29T11:45:21;25.20;90.40
36442;DHT22;22470;50.824;16.284;2022-07-29T11:48:15;25.10;90.20
36442;DHT22;22470;50.824;16.284;2022-07-29T11:50:59;25.10;90.40
36442;DHT22;22470;50.824;16.284;2022-07-29T11:53:27;25.10;90.30
36442;DHT22;22470;50.824;16.284;2022-07-29T11:55:59;25.10;90.30
36442;DHT22;22470;50.824;16.284;2022-07-29T11:58:27;25.20;90.70
36442;DHT22;22470;50.824;16.284;2022-07-29T12:00:55;25.40;90.40
36442;DHT22;22470;50.824;16.284;2022-07-29T12:03:26;25.40;90.00
36442;DHT22;22470;50.824;16.284;2022-07-29T12:06:12;25.20;90.10
36442;DHT22;22470;50.824;16.284;2022-07-29T12:08:42;25.10;90.20
36442;DHT22;22470;50.824;16.284;2022-07-29T12:11:17;25.00;90.50
36442;DHT22;22470;50.824;16.284;2022-07-29T12:13:48;25.00;90.10
36442;DHT22;22470;50.824;16.284;2022-07-29T12:16:16;25.00;90.20
36442;DHT22;22470;50.824;16.284;2022-07-29T12:19:02;24.90;90.50
36442;DHT22;22470;50.824;16.284;2022-07-29T12:21:47;25.10;90.70
36442;DHT22;22470;50.824;16.284;2022-07-29T12:24:23;25.20;90.30
36442;DHT22;22470;50.824;16.284;2022-07-29T12:29:21;25.20;90.10
36442;DHT22;22470;50.824;16.284;2022-07-29T12:32:03;25.20;90.50
36442;DHT22;22470;50.824;16.284;2022-07-29T12:34:36;25.20;90.20
36442;DHT22;22470;50.824;16.284;2022-07-29T12:37:03;24.80;90.20
36442;DHT22;22470;50.824;16.284;2022-07-29T12:39:30;24.90;90.50
36442;DHT22;22470;50.824;16.284;2022-07-29T12:41:58;24.70;90.60
36442;DHT22;22470;50.824;16.284;2022-07-29T12:44:50;24.80;90.80
36442;DHT22;22470;50.824;16.284;2022-07-29T12:47:18;25.00;90.70
36442;DHT22;22470;50.824;16.284;2022-07-29T12:49:46;25.20;90.60
36442;DHT22;22470;50.824;16.284;2022-07-29T12:52:31;25.40;90.40
36442;DHT22;22470;50.824;16.284;2022-07-29T12:54:58;25.60;90.30
36442;DHT22;22470;50.824;16.284;2022-07-29T12:57:26;25.60;89.80
36442;DHT22;22470;50.824;16.284;2022-07-29T13:00:11;25.70;89.50
36442;DHT22;22470;50.824;16.284;2022-07-29T13:02:40;25.50;89.90
36442;DHT22;22470;50.824;16.284;2022-07-29T13:05:08;25.60;89.50
36442;DHT22;22470;50.824;16.284;2022-07-29T13:07:36;25.70;89.40
36442;DHT22;22470;50.824;16.284;2022-07-29T13:10:24;25.60;89.30
36442;DHT22;22470;50.824;16.284;2022-07-29T13:13:15;25.60;89.60
36442;DHT22;22470;50.824;16.284;2022-07-29T13:15:44;25.60;89.50
36442;DHT22;22470;50.824;16.284;2022-07-29T13:18:29;25.40;89.30
36442;DHT22;22470;50.824;16.284;2022-07-29T13:20:57;25.20;89.90
36442;DHT22;22470;50.824;16.284;2022-07-29T13:23:36;25.00;90.30
36442;DHT22;22470;50.824;16.284;2022-07-29T13:26:06;25.00;90.10
36442;DHT22;22470;50.824;16.284;2022-07-29T13:28:33;25.00;90.40
36442;DHT22;22470;50.824;16.284;2022-07-29T13:31:01;25.00;90.10
36442;DHT22;22470;50.824;16.284;2022-07-29T13:33:28;25.00;90.40
36442;DHT22;22470;50.824;16.284;2022-07-29T13:35:56;25.00;90.30
36442;DHT22;22470;50.824;16.284;2022-07-29T13:38:23;25.20;90.40
36442;DHT22;22470;50.824;16.284;2022-07-29T13:40:57;25.20;90.40
36442;DHT22;22470;50.824;16.284;2022-07-29T13:43:25;25.10;90.10
36442;DHT22;22470;50.824;16.284;2022-07-29T13:45:52;24.90;90.50
36442;DHT22;22470;50.824;16.284;2022-07-29T13:48:19;25.00;90.80
36442;DHT22;22470;50.824;16.284;2022-07-29T13:50:46;25.50;90.90
36442;DHT22;22470;50.824;16.284;2022-07-29T13:53:14;24.90;91.00
36442;DHT22;22470;50.824;16.284;2022-07-29T13:55:44;25.00;90.50
36442;DHT22;22470;50.824;16.284;2022-07-29T13:58:11;24.80;90.50
36442;DHT22;22470;50.824;16.284;2022-07-29T14:00:38;24.60;91.00
36442;DHT22;22470;50.824;16.284;2022-07-29T14:03:05;24.70;91.00
36442;DHT22;22470;50.824;16.284;2022-07-29T14:05:32;24.70;91.20
36442;DHT22;22470;50.824;16.284;2022-07-29T14:07:59;24.70;91.30
36442;DHT22;22470;50.824;16.284;2022-07-29T14:10:27;24.70;91.10
36442;DHT22;22470;50.824;16.284;2022-07-29T14:12:54;24.60;91.20
36442;DHT22;22470;50.824;16.284;2022-07-29T14:15:21;24.60;91.30
36442;DHT22;22470;50.824;16.284;2022-07-29T14:17:49;24.50;91.40
36442;DHT22;22470;50.824;16.284;2022-07-29T14:20:16;24.40;91.70
36442;DHT22;22470;50.824;16.284;2022-07-29T14:22:43;24.50;91.50
36442;DHT22;22470;50.824;16.284;2022-07-29T14:25:12;24.40;91.70
36442;DHT22;22470;50.824;16.284;2022-07-29T14:27:42;24.40;91.60
36442;DHT22;22470;50.824;16.284;2022-07-29T14:30:10;24.40;91.40
36442;DHT22;22470;50.824;16.284;2022-07-29T14:32:37;24.30;91.50
36442;DHT22;22470;50.824;16.284;2022-07-29T14:35:05;24.30;91.60
36442;DHT22;22470;50.824;16.284;2022-07-29T14:37:33;24.30;91.70
36442;DHT22;22470;50.824;16.284;2022-07-29T14:40:07;24.20;91.90
36442;DHT22;22470;50.824;16.284;2022-07-29T14:42:35;24.30;92.00
36442;DHT22;22470;50.824;16.284;2022-07-29T14:45:03;24.20;92.50
36442;DHT22;22470;50.824;16.284;2022-07-29T14:47:30;24.30;91.90
36442;DHT22;22470;50.824;16.284;2022-07-29T14:49:57;24.30;92.00
36442;DHT22;22470;50.824;16.284;2022-07-29T14:52:24;24.30;92.00
36442;DHT22;22470;50.824;16.284;2022-07-29T14:54:52;24.30;92.00
36442;DHT22;22470;50.824;16.284;2022-07-29T14:57:19;24.20;92.20
36442;DHT22;22470;50.824;16.284;2022-07-29T14:59:46;24.20;92.40
36442;DHT22;22470;50.824;16.284;2022-07-29T15:02:13;24.30;92.70
36442;DHT22;22470;50.824;16.284;2022-07-29T15:04:41;24.40;92.40
36442;DHT22;22470;50.824;16.284;2022-07-29T15:07:08;24.40;91.90
36442;DHT22;22470;50.824;16.284;2022-07-29T15:09:35;24.40;92.10
36442;DHT22;22470;50.824;16.284;2022-07-29T15:12:15;24.40;92.10
36442;DHT22;22470;50.824;16.284;2022-07-29T15:14:43;24.30;92.80
36442;DHT22;22470;50.824;16.284;2022-07-29T15:17:10;24.20;92.60
36442;DHT22;22470;50.824;16.284;2022-07-29T15:19:37;24.00;92.80
36442;DHT22;22470;50.824;16.284;2022-07-29T15:22:10;24.00;92.70
36442;DHT22;22470;50.824;16.284;2022-07-29T15:24:37;24.00;92.70
36442;DHT22;22470;50.824;16.284;2022-07-29T15:27:04;24.10;92.50
36442;DHT22;22470;50.824;16.284;2022-07-29T15:29:32;24.20;92.70
36442;DHT22;22470;50.824;16.284;2022-07-29T15:31:59;24.30;92.50
36442;DHT22;22470;50.824;16.284;2022-07-29T15:34:27;24.30;92.60
36442;DHT22;22470;50.824;16.284;2022-07-29T15:36:54;24.20;92.60
36442;DHT22;22470;50.824;16.284;2022-07-29T15:39:21;24.20;92.90
36442;DHT22;22470;50.824;16.284;2022-07-29T15:41:49;24.10;93.10
36442;DHT22;22470;50.824;16.284;2022-07-29T15:44:17;24.10;93.20
36442;DHT22;22470;50.824;16.284;2022-07-29T15:46:44;24.00;93.00
36442;DHT22;22470;50.824;16.284;2022-07-29T15:49:11;23.80;93.20
36442;DHT22;22470;50.824;16.284;2022-07-29T15:51:39;23.80;93.40
36442;DHT22;22470;50.824;16.284;2022-07-29T15:54:06;23.80;93.40
36442;DHT22;22470;50.824;16.284;2022-07-29T15:56:33;23.70;93.60
36442;DHT22;22470;50.824;16.284;2022-07-29T15:59:01;23.70;93.70
36442;DHT22;22470;50.824;16.284;2022-07-29T16:01:28;23.70;94.00
36442;DHT22;22470;50.824;16.284;2022-07-29T16:03:56;23.60;94.20
36442;DHT22;22470;50.824;16.284;2022-07-29T16:06:24;23.50;94.30
36442;DHT22;22470;50.824;16.284;2022-07-29T16:08:51;23.50;94.40
36442;DHT22;22470;50.824;16.284;2022-07-29T16:11:18;23.50;94.40
36442;DHT22;22470;50.824;16.284;2022-07-29T16:13:46;23.50;94.30
36442;DHT22;22470;50.824;16.284;2022-07-29T16:16:13;23.60;94.40
36442;DHT22;22470;50.824;16.284;2022-07-29T16:18:40;23.50;94.30
36442;DHT22;22470;50.824;16.284;2022-07-29T16:21:08;23.60;94.40
36442;DHT22;22470;50.824;16.284;2022-07-29T16:23:35;23.50;94.50
36442;DHT22;22470;50.824;16.284;2022-07-29T16:26:02;23.40;94.80